createdAt,value
2023-04-20T00:00:17.431Z,27.60
2023-04-20T00:00:48.973Z,27.45
2023-04-20T00:01:24.707Z,27.77
2023-04-20T00:01:56.456Z,27.71
2023-04-20T00:02:30.555Z,27.95
2023-04-20T00:03:06.741Z,27.53
2023-04-20T00:03:40.344Z,27.60
2023-04-20T00:04:18.451Z,27.55
2023-04-20T00:04:50.009Z,27.58
2023-04-20T00:05:30.471Z,27.63
2023-04-20T00:06:03.491Z,27.51
2023-04-20T00:06:35.057Z,27.67
2023-04-20T00:07:06.617Z,27.58
2023-04-20T00:07:51.420Z,27.68
2023-04-20T00:08:29.597Z,27.43
2023-04-20T00:09:01.175Z,27.70
2023-04-20T00:09:39.326Z,27.68
2023-04-20T00:10:10.913Z,27.54
2023-04-20T00:10:42.390Z,27.38
2023-04-20T00:11:18.456Z,27.55
2023-04-20T00:11:53.148Z,27.63
2023-04-20T00:12:27.577Z,27.58
2023-04-20T00:12:59.115Z,27.63
2023-04-20T00:13:30.570Z,27.60
2023-04-20T00:14:04.994Z,27.67
2023-04-20T00:14:36.452Z,27.34
2023-04-20T00:15:09.995Z,27.30
2023-04-20T00:15:47.265Z,27.31
2023-04-20T00:16:19.952Z,27.23
2023-04-20T00:16:58.868Z,27.63
2023-04-20T00:17:35.413Z,27.71
2023-04-20T00:18:10.328Z,27.78
2023-04-20T00:18:41.986Z,28.03
2023-04-20T00:20:10.932Z,28.21
2023-04-20T00:20:45.007Z,28.06
2023-04-20T00:21:21.964Z,28.20
2023-04-20T00:22:03.312Z,28.56
2023-04-20T00:22:40.535Z,28.43
2023-04-20T00:23:19.351Z,28.68
2023-04-20T00:23:52.112Z,28.61
2023-04-20T00:24:26.788Z,28.75
2023-04-20T00:25:06.453Z,28.51
2023-04-20T00:25:37.859Z,28.52
2023-04-20T00:26:09.262Z,28.30
2023-04-20T00:26:40.681Z,28.56
2023-04-20T00:27:12.154Z,28.58
2023-04-20T00:27:43.624Z,28.75
2023-04-20T00:28:15.050Z,29.00
2023-04-20T00:28:46.468Z,29.16
2023-04-20T00:29:18.150Z,29.22
2023-04-20T00:29:49.759Z,29.42
2023-04-20T00:30:21.164Z,29.17
2023-04-20T00:30:52.618Z,29.47
2023-04-20T00:31:24.105Z,29.44
2023-04-20T00:31:55.490Z,29.72
2023-04-20T00:32:27.024Z,29.70
2023-04-20T00:32:58.698Z,29.59
2023-04-20T00:33:30.143Z,29.28
2023-04-20T00:34:01.579Z,29.49
2023-04-20T00:34:33.014Z,29.33
2023-04-20T00:35:04.358Z,29.36
2023-04-20T00:35:35.767Z,29.58
2023-04-20T00:36:07.157Z,29.54
2023-04-20T00:36:38.557Z,29.51
2023-04-20T00:37:09.993Z,29.67
2023-04-20T00:37:41.442Z,29.63
2023-04-20T00:38:12.902Z,29.83
2023-04-20T00:38:44.324Z,29.85
2023-04-20T00:39:16.026Z,29.97
2023-04-20T00:39:47.609Z,30.02
2023-04-20T00:40:21.810Z,30.08
2023-04-20T00:40:53.245Z,30.32
2023-04-20T00:41:24.711Z,30.26
2023-04-20T00:41:56.143Z,30.35
2023-04-20T00:42:27.563Z,30.31
2023-04-20T00:43:02.011Z,30.50
2023-04-20T00:43:36.655Z,30.56
2023-04-20T00:44:08.551Z,30.32
2023-04-20T00:44:40.093Z,30.20
2023-04-20T00:45:11.570Z,30.16
2023-04-20T00:45:43.013Z,30.60
2023-04-20T00:46:16.723Z,30.50
2023-04-20T00:46:48.214Z,30.45
2023-04-20T00:47:19.595Z,30.19
2023-04-20T00:47:51.088Z,30.25
2023-04-20T00:48:22.518Z,30.11
2023-04-20T00:48:53.959Z,30.52
2023-04-20T00:49:25.419Z,30.29
2023-04-20T00:49:56.849Z,30.03
2023-04-20T00:50:28.475Z,30.35
2023-04-20T00:50:59.874Z,30.57
2023-04-20T00:51:31.347Z,30.43
2023-04-20T00:52:02.837Z,30.66
2023-04-20T00:52:34.268Z,30.56
2023-04-20T00:53:05.788Z,30.69
2023-04-20T00:53:37.223Z,30.93
2023-04-20T00:54:08.668Z,30.44
2023-04-20T00:54:40.113Z,30.51
2023-04-20T00:55:11.573Z,30.53
2023-04-20T00:55:43.012Z,30.40
2023-04-20T00:56:14.484Z,30.51
2023-04-20T00:56:45.920Z,30.58
2023-04-20T00:57:17.337Z,30.90
2023-04-20T00:57:51.767Z,30.55
2023-04-20T00:58:23.250Z,30.32
2023-04-20T00:58:54.659Z,30.43
2023-04-20T00:59:26.091Z,30.19
2023-04-20T00:59:57.555Z,29.87
2023-04-20T01:00:29.182Z,29.66
2023-04-20T01:01:00.725Z,29.51
2023-04-20T01:01:32.243Z,29.20
2023-04-20T01:02:03.824Z,29.30
2023-04-20T01:02:35.486Z,28.85
2023-04-20T01:03:07.138Z,28.98
2023-04-20T01:03:38.795Z,28.93
2023-04-20T01:04:10.413Z,28.64
2023-04-20T01:04:41.910Z,28.75
2023-04-20T01:05:13.341Z,28.67
2023-04-20T01:05:44.758Z,28.77
2023-04-20T01:06:16.181Z,28.54
2023-04-20T01:06:47.577Z,28.72
2023-04-20T01:07:18.982Z,28.52
2023-04-20T01:07:50.403Z,28.62
2023-04-20T01:08:21.824Z,28.68
2023-04-20T01:08:53.249Z,28.51
2023-04-20T01:09:24.697Z,28.72
2023-04-20T01:09:56.113Z,28.61
2023-04-20T01:10:27.527Z,28.50
2023-04-20T01:10:59.012Z,28.76
2023-04-20T01:11:30.453Z,28.80
2023-04-20T01:12:01.893Z,28.60
2023-04-20T01:12:33.343Z,28.77
2023-04-20T01:13:04.754Z,28.56
2023-04-20T01:13:36.164Z,28.78
2023-04-20T01:14:07.668Z,28.55
2023-04-20T01:14:39.077Z,28.45
2023-04-20T01:15:10.471Z,28.44
2023-04-20T01:15:41.917Z,28.81
2023-04-20T01:16:13.381Z,28.55
2023-04-20T01:16:44.843Z,28.68
2023-04-20T01:17:16.425Z,28.55
2023-04-20T01:17:47.976Z,28.70
2023-04-20T01:18:19.413Z,28.51
2023-04-20T01:18:53.689Z,28.34
2023-04-20T01:19:25.117Z,28.69
2023-04-20T01:19:56.508Z,28.63
2023-04-20T01:20:27.924Z,28.60
2023-04-20T01:20:59.332Z,28.47
2023-04-20T01:21:30.808Z,28.68
2023-04-20T01:22:02.208Z,28.55
2023-04-20T01:22:33.619Z,28.60
2023-04-20T01:23:05.030Z,28.78
2023-04-20T01:23:36.448Z,28.68
2023-04-20T01:24:07.862Z,28.64
2023-04-20T01:24:39.274Z,28.64
2023-04-20T01:25:10.688Z,28.69
2023-04-20T01:25:42.215Z,28.81
2023-04-20T01:26:13.987Z,28.69
2023-04-20T01:26:45.465Z,28.69
2023-04-20T01:27:17.008Z,28.65
2023-04-20T01:27:48.478Z,28.64
2023-04-20T01:28:19.933Z,28.74
2023-04-20T01:28:51.436Z,28.79
2023-04-20T01:29:23.205Z,28.72
2023-04-20T01:29:57.192Z,28.69
2023-04-20T01:30:28.618Z,28.67
2023-04-20T01:31:00.089Z,28.78
2023-04-20T01:31:31.868Z,28.83
2023-04-20T01:32:03.412Z,28.67
2023-04-20T01:32:35.113Z,28.83
2023-04-20T01:33:06.688Z,28.71
2023-04-20T01:33:38.094Z,29.00
2023-04-20T01:34:09.509Z,28.84
2023-04-20T01:34:41.050Z,28.89
2023-04-20T01:35:12.594Z,28.74
2023-04-20T01:35:44.013Z,28.77
2023-04-20T01:36:16.115Z,28.82
2023-04-20T01:36:47.565Z,28.71
2023-04-20T01:37:18.943Z,28.59
2023-04-20T01:37:50.324Z,28.57
2023-04-20T01:38:21.747Z,28.85
2023-04-20T01:38:53.210Z,28.94
2023-04-20T01:39:24.687Z,28.71
2023-04-20T01:39:59.282Z,28.61
2023-04-20T01:40:30.768Z,28.70
2023-04-20T01:41:02.327Z,28.64
2023-04-20T01:41:33.809Z,28.56
2023-04-20T01:42:05.257Z,28.64
2023-04-20T01:42:36.770Z,28.71
2023-04-20T01:43:08.180Z,28.95
2023-04-20T01:43:39.679Z,28.69
2023-04-20T01:44:11.110Z,28.85
2023-04-20T01:44:42.512Z,28.62
2023-04-20T01:45:13.962Z,28.86
2023-04-20T01:45:45.407Z,28.61
2023-04-20T01:46:16.821Z,28.74
2023-04-20T01:46:48.407Z,28.75
2023-04-20T01:47:19.920Z,28.71
2023-04-20T01:47:51.403Z,28.68
2023-04-20T01:48:22.826Z,28.63
2023-04-20T01:48:54.200Z,28.69
2023-04-20T01:49:25.594Z,28.66
2023-04-20T01:49:56.989Z,28.58
2023-04-20T01:50:28.421Z,28.59
2023-04-20T01:50:59.860Z,28.72
2023-04-20T01:51:39.906Z,28.94
2023-04-20T01:52:11.372Z,28.77
2023-04-20T01:52:42.765Z,28.80
2023-04-20T01:53:14.202Z,28.89
2023-04-20T01:53:45.603Z,28.80
2023-04-20T01:54:17.034Z,28.74
2023-04-20T01:54:48.437Z,28.61
2023-04-20T01:55:20.272Z,28.83
2023-04-20T01:55:51.840Z,28.70
2023-04-20T01:56:23.330Z,28.94
2023-04-20T01:56:54.793Z,28.86
2023-04-20T01:57:26.315Z,28.76
2023-04-20T01:57:57.757Z,28.66
2023-04-20T01:58:29.198Z,28.70
2023-04-20T01:59:00.617Z,28.68
2023-04-20T01:59:32.096Z,28.71
2023-04-20T02:00:03.513Z,28.61
2023-04-20T02:00:34.924Z,28.75
2023-04-20T02:01:06.429Z,28.89
2023-04-20T02:01:37.852Z,28.85
2023-04-20T02:02:09.431Z,28.75
2023-04-20T02:02:41.026Z,28.76
2023-04-20T02:03:48.111Z,28.76
2023-04-20T02:04:19.366Z,28.92
2023-04-20T02:04:50.569Z,28.85
2023-04-20T02:05:21.860Z,28.83
2023-04-20T02:05:53.393Z,28.84
2023-04-20T02:06:24.885Z,28.90
2023-04-20T02:06:56.340Z,28.84
2023-04-20T02:07:27.875Z,28.85
2023-04-20T02:07:59.406Z,28.91
2023-04-20T02:08:30.887Z,28.91
2023-04-20T02:09:02.326Z,28.96
2023-04-20T02:09:33.709Z,28.89
2023-04-20T02:10:05.337Z,28.89
2023-04-20T02:10:36.849Z,28.98
2023-04-20T02:11:08.250Z,28.89
2023-04-20T02:11:39.682Z,28.81
2023-04-20T02:12:11.175Z,29.10
2023-04-20T02:12:42.557Z,29.13
2023-04-20T02:13:14.155Z,28.90
2023-04-20T02:13:45.599Z,28.89
2023-04-20T02:14:17.031Z,29.05
2023-04-20T02:14:48.580Z,28.92
2023-04-20T02:15:20.038Z,28.98
2023-04-20T02:15:51.447Z,28.98
2023-04-20T02:16:22.863Z,29.03
2023-04-20T02:16:54.298Z,28.99
2023-04-20T02:17:25.827Z,28.99
2023-04-20T02:17:57.300Z,29.07
2023-04-20T02:18:28.848Z,28.88
2023-04-20T02:19:00.301Z,28.82
2023-04-20T02:19:31.736Z,29.07
2023-04-20T02:20:03.151Z,28.98
2023-04-20T02:20:34.572Z,28.92
2023-04-20T02:21:06.066Z,28.87
2023-04-20T02:21:37.528Z,29.20
2023-04-20T02:22:08.917Z,29.24
2023-04-20T02:22:40.365Z,29.06
2023-04-20T02:23:11.984Z,28.93
2023-04-20T02:23:43.432Z,28.94
2023-04-20T02:24:14.957Z,28.97
2023-04-20T02:24:46.360Z,28.98
2023-04-20T02:25:17.859Z,28.91
2023-04-20T02:25:49.290Z,29.04
2023-04-20T02:26:20.736Z,29.12
2023-04-20T02:26:52.169Z,29.38
2023-04-20T02:27:23.557Z,29.13
2023-04-20T02:27:54.967Z,29.24
2023-04-20T02:28:26.429Z,29.17
2023-04-20T02:28:57.933Z,29.23
2023-04-20T02:29:29.391Z,29.00
2023-04-20T02:30:00.818Z,29.00
2023-04-20T02:30:32.194Z,29.19
2023-04-20T02:31:03.597Z,29.19
2023-04-20T02:31:35.189Z,29.25
2023-04-20T02:32:06.672Z,29.13
2023-04-20T02:32:38.188Z,29.35
2023-04-20T02:33:09.601Z,29.31
2023-04-20T02:33:40.988Z,29.19
2023-04-20T02:34:12.490Z,29.28
2023-04-20T02:34:43.948Z,29.20
2023-04-20T02:35:15.426Z,29.08
2023-04-20T02:35:46.781Z,29.25
2023-04-20T02:36:18.232Z,29.21
2023-04-20T02:36:49.653Z,29.36
2023-04-20T02:37:21.063Z,29.27
2023-04-20T02:37:52.456Z,29.09
2023-04-20T02:38:23.962Z,29.39
2023-04-20T02:38:55.361Z,29.33
2023-04-20T02:39:26.891Z,29.24
2023-04-20T02:39:58.441Z,29.22
2023-04-20T02:40:29.898Z,29.20
2023-04-20T02:41:01.368Z,29.31
2023-04-20T02:41:32.770Z,29.33
2023-04-20T02:42:04.241Z,29.36
2023-04-20T02:42:35.682Z,29.32
2023-04-20T02:43:08.267Z,29.37
2023-04-20T02:43:39.762Z,29.58
2023-04-20T02:44:11.145Z,29.38
2023-04-20T02:44:42.609Z,29.31
2023-04-20T02:45:14.040Z,29.47
2023-04-20T02:45:45.430Z,29.35
2023-04-20T02:46:16.873Z,29.42
2023-04-20T02:46:48.416Z,29.47
2023-04-20T02:47:19.969Z,29.36
2023-04-20T02:47:51.592Z,29.35
2023-04-20T02:48:23.028Z,29.41
2023-04-20T02:48:54.434Z,29.32
2023-04-20T02:49:25.912Z,29.35
2023-04-20T02:49:57.395Z,29.24
2023-04-20T02:50:28.817Z,29.34
2023-04-20T02:51:00.281Z,29.27
2023-04-20T02:51:31.761Z,29.24
2023-04-20T02:52:03.215Z,29.41
2023-04-20T02:52:34.618Z,29.36
2023-04-20T02:53:06.106Z,29.38
2023-04-20T02:53:37.530Z,29.41
2023-04-20T02:54:08.963Z,29.29
2023-04-20T02:54:40.446Z,29.49
2023-04-20T02:55:11.923Z,29.42
2023-04-20T02:55:43.417Z,29.19
2023-04-20T02:56:14.896Z,29.33
2023-04-20T02:56:46.359Z,29.40
2023-04-20T02:57:17.801Z,29.37
2023-04-20T02:57:49.173Z,29.45
2023-04-20T02:58:20.581Z,29.47
2023-04-20T02:58:52.002Z,29.44
2023-04-20T02:59:23.416Z,29.44
2023-04-20T02:59:54.852Z,29.42
2023-04-20T03:00:26.323Z,29.41
2023-04-20T03:00:57.732Z,29.42
2023-04-20T03:01:29.155Z,29.50
2023-04-20T03:02:00.729Z,29.34
2023-04-20T03:02:32.383Z,29.27
2023-04-20T03:03:03.937Z,29.37
2023-04-20T03:03:35.580Z,29.34
2023-04-20T03:04:07.264Z,29.49
2023-04-20T03:04:38.871Z,29.34
2023-04-20T03:05:10.352Z,29.51
2023-04-20T03:05:41.903Z,29.48
2023-04-20T03:06:13.337Z,29.51
2023-04-20T03:06:44.825Z,29.38
2023-04-20T03:07:16.764Z,29.49
2023-04-20T03:07:48.301Z,29.48
2023-04-20T03:08:19.693Z,29.36
2023-04-20T03:08:51.089Z,29.46
2023-04-20T03:09:22.509Z,29.36
2023-04-20T03:09:53.907Z,29.38
2023-04-20T03:10:25.291Z,29.56
2023-04-20T03:10:56.820Z,29.52
2023-04-20T03:11:28.264Z,29.38
2023-04-20T03:11:59.676Z,29.45
2023-04-20T03:12:31.112Z,29.52
2023-04-20T03:13:02.485Z,29.55
2023-04-20T03:13:33.978Z,29.59
2023-04-20T03:14:05.517Z,29.54
2023-04-20T03:14:36.923Z,29.54
2023-04-20T03:15:08.361Z,29.36
2023-04-20T03:15:39.740Z,29.42
2023-04-20T03:16:11.283Z,29.50
2023-04-20T03:16:42.713Z,29.38
2023-04-20T03:17:14.221Z,29.45
2023-04-20T03:17:45.714Z,29.31
2023-04-20T03:18:17.181Z,29.25
2023-04-20T03:18:48.588Z,29.50
2023-04-20T03:19:20.039Z,29.52
2023-04-20T03:19:51.524Z,29.43
2023-04-20T03:20:22.929Z,29.28
2023-04-20T03:20:54.328Z,29.53
2023-04-20T03:21:25.831Z,29.62
2023-04-20T03:21:57.308Z,29.45
2023-04-20T03:22:28.749Z,29.41
2023-04-20T03:23:00.184Z,29.47
2023-04-20T03:23:31.709Z,29.43
2023-04-20T03:24:03.099Z,29.39
2023-04-20T03:24:34.531Z,29.29
2023-04-20T03:25:05.959Z,29.46
2023-04-20T03:25:37.381Z,29.59
2023-04-20T03:26:08.776Z,29.58
2023-04-20T03:26:40.272Z,29.49
2023-04-20T03:27:11.661Z,29.34
2023-04-20T03:27:43.067Z,29.44
2023-04-20T03:28:14.468Z,29.64
2023-04-20T03:28:45.882Z,29.46
2023-04-20T03:29:17.451Z,29.44
2023-04-20T03:29:49.055Z,29.52
2023-04-20T03:30:20.515Z,29.51
2023-04-20T03:30:51.934Z,29.61
2023-04-20T03:31:23.369Z,29.49
2023-04-20T03:31:54.813Z,29.54
2023-04-20T03:32:26.325Z,29.58
2023-04-20T03:32:57.856Z,29.53
2023-04-20T03:33:29.347Z,29.44
2023-04-20T03:34:00.724Z,29.62
2023-04-20T03:34:32.162Z,29.50
2023-04-20T03:35:03.640Z,29.47
2023-04-20T03:35:35.084Z,29.38
2023-04-20T03:36:06.619Z,29.39
2023-04-20T03:36:38.080Z,29.51
2023-04-20T03:37:09.606Z,29.48
2023-04-20T03:37:41.046Z,29.47
2023-04-20T03:38:12.510Z,29.66
2023-04-20T03:38:44.002Z,29.43
2023-04-20T03:39:15.517Z,29.50
2023-04-20T03:39:47.086Z,29.62
2023-04-20T03:40:18.566Z,29.73
2023-04-20T03:40:49.979Z,29.49
2023-04-20T03:41:21.364Z,29.61
2023-04-20T03:41:52.786Z,29.54
2023-04-20T03:42:24.291Z,29.64
2023-04-20T03:42:55.742Z,29.45
2023-04-20T03:43:27.176Z,29.59
2023-04-20T03:43:58.601Z,29.75
2023-04-20T03:44:30.070Z,29.54
2023-04-20T03:45:01.496Z,29.44
2023-04-20T03:45:32.940Z,29.70
2023-04-20T03:46:04.464Z,29.50
2023-04-20T03:46:35.956Z,29.67
2023-04-20T03:47:07.392Z,29.52
2023-04-20T03:47:38.930Z,29.62
2023-04-20T03:48:10.410Z,29.66
2023-04-20T03:48:41.847Z,29.70
2023-04-20T03:49:13.295Z,29.70
2023-04-20T03:49:44.694Z,29.72
2023-04-20T03:50:16.131Z,29.85
2023-04-20T03:50:47.530Z,29.60
2023-04-20T03:51:18.964Z,29.72
2023-04-20T03:51:50.355Z,29.88
2023-04-20T03:52:21.798Z,29.66
2023-04-20T03:52:53.249Z,29.66
2023-04-20T03:53:24.661Z,29.96
2023-04-20T03:53:56.065Z,29.81
2023-04-20T03:54:27.489Z,29.80
2023-04-20T03:54:58.905Z,29.70
2023-04-20T03:55:30.324Z,29.87
2023-04-20T03:56:01.794Z,29.72
2023-04-20T03:56:33.191Z,29.95
2023-04-20T03:57:04.683Z,29.71
2023-04-20T03:57:36.129Z,29.83
2023-04-20T03:58:07.697Z,29.98
2023-04-20T03:58:39.105Z,29.78
2023-04-20T03:59:10.600Z,29.78
2023-04-20T03:59:42.371Z,29.92
2023-04-20T04:00:13.853Z,29.87
2023-04-20T04:00:45.255Z,29.76
2023-04-20T04:01:16.735Z,29.86
2023-04-20T04:01:48.199Z,29.81
2023-04-20T04:02:19.612Z,29.85
2023-04-20T04:02:51.230Z,29.97
2023-04-20T04:03:22.972Z,30.03
2023-04-20T04:03:54.684Z,29.83
2023-04-20T04:04:26.549Z,30.03
2023-04-20T04:04:58.322Z,30.04
2023-04-20T04:05:30.058Z,30.05
2023-04-20T04:06:01.521Z,30.04
2023-04-20T04:06:32.966Z,29.91
2023-04-20T04:07:04.358Z,29.91
2023-04-20T04:07:35.780Z,30.02
2023-04-20T04:08:07.221Z,29.94
2023-04-20T04:08:38.695Z,29.97
2023-04-20T04:09:10.100Z,30.15
2023-04-20T04:09:41.589Z,29.98
2023-04-20T04:10:13.023Z,29.95
2023-04-20T04:10:44.463Z,29.99
2023-04-20T04:11:15.869Z,30.02
2023-04-20T04:11:47.322Z,30.05
2023-04-20T04:12:18.777Z,30.03
2023-04-20T04:12:50.173Z,29.98
2023-04-20T04:13:21.609Z,30.02
2023-04-20T04:13:53.073Z,30.13
2023-04-20T04:14:24.508Z,30.01
2023-04-20T04:14:55.905Z,29.93
2023-04-20T04:15:27.353Z,30.10
2023-04-20T04:15:58.780Z,30.12
2023-04-20T04:16:30.336Z,29.89
2023-04-20T04:17:01.847Z,29.90
2023-04-20T04:17:33.363Z,30.03
2023-04-20T04:18:04.867Z,30.00
2023-04-20T04:18:36.326Z,30.09
2023-04-20T04:19:07.875Z,30.09
2023-04-20T04:19:39.275Z,29.94
2023-04-20T04:20:10.783Z,29.89
2023-04-20T04:20:42.236Z,30.02
2023-04-20T04:21:13.670Z,29.87
2023-04-20T04:21:45.099Z,30.03
2023-04-20T04:22:16.486Z,29.97
2023-04-20T04:22:47.880Z,30.10
2023-04-20T04:23:19.321Z,29.91
2023-04-20T04:23:50.780Z,29.95
2023-04-20T04:24:22.306Z,30.02
2023-04-20T04:24:53.711Z,30.15
2023-04-20T04:25:25.075Z,30.23
2023-04-20T04:25:56.492Z,30.05
2023-04-20T04:26:27.933Z,30.17
2023-04-20T04:26:59.404Z,29.97
2023-04-20T04:27:30.842Z,30.13
2023-04-20T04:28:02.299Z,30.11
2023-04-20T04:28:33.713Z,30.14
2023-04-20T04:29:05.147Z,30.25
2023-04-20T04:29:36.622Z,30.11
2023-04-20T04:30:08.044Z,30.20
2023-04-20T04:30:39.482Z,30.24
2023-04-20T04:31:10.938Z,30.21
2023-04-20T04:31:42.494Z,30.17
2023-04-20T04:32:13.998Z,30.06
2023-04-20T04:32:45.466Z,30.09
2023-04-20T04:33:16.924Z,30.17
2023-04-20T04:33:48.399Z,30.21
2023-04-20T04:34:19.829Z,30.27
2023-04-20T04:34:51.316Z,30.20
2023-04-20T04:35:22.743Z,30.12
2023-04-20T04:35:54.208Z,30.13
2023-04-20T04:36:25.682Z,30.24
2023-04-20T04:36:57.188Z,30.21
2023-04-20T04:37:28.619Z,30.37
2023-04-20T04:37:59.999Z,30.10
2023-04-20T04:38:31.418Z,30.20
2023-04-20T04:39:02.896Z,30.28
2023-04-20T04:39:34.339Z,30.37
2023-04-20T04:40:05.833Z,30.26
2023-04-20T04:40:37.427Z,30.29
2023-04-20T04:41:09.007Z,30.18
2023-04-20T04:41:40.600Z,30.35
2023-04-20T04:42:12.072Z,30.26
2023-04-20T04:42:43.495Z,30.13
2023-04-20T04:43:14.910Z,30.20
2023-04-20T04:43:46.394Z,30.45
2023-04-20T04:44:17.873Z,30.45
2023-04-20T04:44:49.465Z,30.31
2023-04-20T04:45:20.968Z,30.39
2023-04-20T04:45:52.456Z,30.13
2023-04-20T04:46:23.972Z,30.30
2023-04-20T04:46:55.494Z,30.30
2023-04-20T04:47:26.955Z,30.31
2023-04-20T04:47:58.471Z,30.27
2023-04-20T04:48:29.956Z,30.31
2023-04-20T04:49:01.541Z,30.36
2023-04-20T04:49:33.010Z,30.32
2023-04-20T04:50:04.446Z,30.32
2023-04-20T04:50:35.986Z,30.18
2023-04-20T04:51:07.477Z,30.33
2023-04-20T04:51:38.916Z,30.24
2023-04-20T04:52:10.343Z,30.37
2023-04-20T04:52:41.757Z,30.36
2023-04-20T04:53:13.180Z,30.30
2023-04-20T04:53:44.678Z,30.34
2023-04-20T04:54:16.060Z,30.46
2023-04-20T04:54:47.465Z,30.21
2023-04-20T04:55:18.864Z,30.39
2023-04-20T04:55:50.332Z,30.34
2023-04-20T04:56:21.797Z,30.26
2023-04-20T04:56:53.184Z,30.25
2023-04-20T04:57:24.567Z,30.32
2023-04-20T04:57:56.032Z,30.38
2023-04-20T04:58:27.473Z,30.54
2023-04-20T04:58:58.902Z,30.41
2023-04-20T04:59:30.338Z,30.38
2023-04-20T05:00:01.716Z,30.47
2023-04-20T05:00:33.207Z,30.40
2023-04-20T05:01:04.690Z,30.40
2023-04-20T05:01:36.142Z,30.49
2023-04-20T05:02:07.725Z,30.51
2023-04-20T05:02:39.865Z,30.54
2023-04-20T05:03:11.729Z,30.43
2023-04-20T05:03:43.486Z,30.28
2023-04-20T05:04:15.107Z,30.44
2023-04-20T05:04:46.726Z,30.48
2023-04-20T05:05:18.227Z,30.40
2023-04-20T05:05:49.599Z,30.46
2023-04-20T05:06:21.051Z,30.39
2023-04-20T05:06:52.466Z,30.54
2023-04-20T05:07:23.895Z,30.45
2023-04-20T05:07:55.345Z,30.55
2023-04-20T05:08:26.727Z,30.56
2023-04-20T05:08:58.111Z,30.51
2023-04-20T05:09:29.555Z,30.54
2023-04-20T05:10:00.950Z,30.40
2023-04-20T05:10:32.368Z,30.42
2023-04-20T05:11:03.805Z,30.48
2023-04-20T05:11:35.283Z,30.37
2023-04-20T05:12:06.665Z,30.34
2023-04-20T05:12:38.061Z,30.60
2023-04-20T05:13:09.462Z,30.69
2023-04-20T05:13:40.896Z,30.58
2023-04-20T05:14:12.338Z,30.46
2023-04-20T05:14:43.752Z,30.53
2023-04-20T05:15:15.152Z,30.49
2023-04-20T05:15:46.566Z,30.55
2023-04-20T05:16:18.094Z,30.56
2023-04-20T05:16:49.632Z,30.69
2023-04-20T05:17:21.114Z,30.58
2023-04-20T05:17:52.609Z,30.70
2023-04-20T05:18:24.122Z,30.56
2023-04-20T05:18:55.522Z,30.67
2023-04-20T05:19:26.981Z,30.61
2023-04-20T05:19:58.379Z,30.48
2023-04-20T05:20:29.817Z,30.74
2023-04-20T05:21:01.224Z,30.76
2023-04-20T05:21:32.684Z,30.54
2023-04-20T05:22:04.133Z,30.71
2023-04-20T05:22:35.561Z,30.58
2023-04-20T05:23:07.068Z,30.68
2023-04-20T05:23:38.484Z,30.54
2023-04-20T05:24:09.894Z,30.67
2023-04-20T05:24:41.323Z,30.53
2023-04-20T05:25:13.987Z,30.71
2023-04-20T05:25:45.650Z,30.88
2023-04-20T05:26:17.056Z,30.82
2023-04-20T05:26:48.505Z,30.80
2023-04-20T05:27:19.999Z,30.83
2023-04-20T05:27:51.458Z,30.86
2023-04-20T05:28:22.843Z,30.80
2023-04-20T05:28:54.252Z,30.83
2023-04-20T05:29:25.683Z,30.85
2023-04-20T05:30:03.706Z,30.87
2023-04-20T05:30:44.330Z,30.85
2023-04-20T05:31:15.896Z,30.95
2023-04-20T05:31:47.453Z,30.78
2023-04-20T05:32:18.947Z,30.88
2023-04-20T05:32:52.307Z,30.81
2023-04-20T05:33:24.126Z,30.85
2023-04-20T05:33:55.570Z,30.74
2023-04-20T05:34:26.998Z,30.98
2023-04-20T05:34:58.437Z,31.00
2023-04-20T05:35:29.877Z,30.90
2023-04-20T05:36:01.276Z,30.91
2023-04-20T05:36:32.689Z,31.03
2023-04-20T05:37:04.155Z,30.98
2023-04-20T05:37:35.614Z,30.90
2023-04-20T05:38:07.101Z,30.92
2023-04-20T05:38:38.510Z,31.01
2023-04-20T05:39:09.881Z,31.05
2023-04-20T05:39:41.323Z,30.82
2023-04-20T05:40:12.727Z,31.00
2023-04-20T05:40:44.281Z,30.79
2023-04-20T05:41:15.712Z,30.96
2023-04-20T05:41:47.132Z,30.80
2023-04-20T05:42:18.538Z,31.00
2023-04-20T05:42:50.172Z,30.90
2023-04-20T05:43:21.605Z,31.04
2023-04-20T05:43:53.014Z,31.03
2023-04-20T05:44:24.429Z,30.97
2023-04-20T05:44:55.873Z,31.00
2023-04-20T05:45:27.409Z,31.00
2023-04-20T05:45:59.091Z,30.94
2023-04-20T05:46:30.581Z,30.98
2023-04-20T05:47:02.002Z,30.81
2023-04-20T05:47:33.473Z,30.94
2023-04-20T05:48:04.964Z,30.84
2023-04-20T05:48:36.497Z,30.97
2023-04-20T05:49:07.909Z,30.88
2023-04-20T05:49:39.324Z,30.95
2023-04-20T05:50:10.876Z,30.97
2023-04-20T05:50:42.340Z,31.03
2023-04-20T05:51:13.877Z,30.87
2023-04-20T05:51:45.288Z,31.08
2023-04-20T05:52:16.719Z,31.17
2023-04-20T05:52:48.163Z,31.13
2023-04-20T05:53:19.602Z,31.09
2023-04-20T05:53:51.257Z,31.06
2023-04-20T05:54:22.681Z,30.97
2023-04-20T05:54:54.071Z,31.01
2023-04-20T05:55:25.487Z,30.86
2023-04-20T05:55:56.894Z,31.05
2023-04-20T05:56:28.339Z,30.99
2023-04-20T05:56:59.783Z,31.04
2023-04-20T05:57:31.202Z,31.00
2023-04-20T05:58:02.587Z,30.85
2023-04-20T05:58:34.099Z,30.96
2023-04-20T05:59:05.497Z,31.14
2023-04-20T05:59:36.893Z,31.00
2023-04-20T06:00:08.371Z,30.92
2023-04-20T06:00:39.793Z,31.04
2023-04-20T06:01:11.258Z,30.97
2023-04-20T06:01:42.653Z,31.05
2023-04-20T06:02:14.476Z,31.18
2023-04-20T06:02:46.201Z,31.11
2023-04-20T06:03:17.898Z,30.99
2023-04-20T06:03:49.729Z,31.08
2023-04-20T06:04:21.455Z,31.13
2023-04-20T06:04:53.146Z,30.97
2023-04-20T06:05:24.660Z,30.96
2023-04-20T06:05:56.185Z,31.05
2023-04-20T06:06:27.766Z,31.00
2023-04-20T06:06:59.183Z,31.20
2023-04-20T06:07:30.678Z,31.07
2023-04-20T06:08:02.106Z,30.88
2023-04-20T06:08:33.556Z,31.09
2023-04-20T06:09:05.004Z,31.22
2023-04-20T06:09:36.429Z,31.06
2023-04-20T06:10:07.896Z,31.09
2023-04-20T06:10:39.312Z,30.89
2023-04-20T06:11:10.743Z,31.09
2023-04-20T06:11:42.180Z,31.07
2023-04-20T06:12:13.593Z,31.22
2023-04-20T06:12:45.069Z,31.08
2023-04-20T06:13:16.578Z,31.12
2023-04-20T06:13:48.027Z,31.09
2023-04-20T06:14:19.438Z,31.11
2023-04-20T06:14:50.973Z,31.06
2023-04-20T06:15:22.350Z,30.98
2023-04-20T06:15:53.816Z,31.10
2023-04-20T06:16:25.303Z,31.13
2023-04-20T06:16:56.750Z,31.20
2023-04-20T06:17:28.193Z,31.19
2023-04-20T06:17:59.632Z,31.08
2023-04-20T06:18:31.034Z,31.07
2023-04-20T06:19:02.477Z,31.13
2023-04-20T06:19:33.889Z,31.09
2023-04-20T06:20:05.424Z,31.20
2023-04-20T06:20:36.837Z,30.97
2023-04-20T06:21:08.269Z,31.24
2023-04-20T06:21:39.652Z,31.07
2023-04-20T06:22:11.009Z,31.12
2023-04-20T06:22:42.439Z,31.02
2023-04-20T06:23:13.885Z,31.11
2023-04-20T06:23:45.250Z,31.15
2023-04-20T06:24:16.689Z,31.16
2023-04-20T06:24:48.137Z,31.15
2023-04-20T06:25:19.614Z,31.18
2023-04-20T06:25:51.035Z,31.16
2023-04-20T06:26:22.438Z,31.07
2023-04-20T06:26:53.841Z,30.89
2023-04-20T06:27:25.250Z,30.95
2023-04-20T06:27:56.687Z,31.02
2023-04-20T06:28:28.094Z,31.10
2023-04-20T06:28:59.542Z,31.14
2023-04-20T06:29:30.973Z,31.08
2023-04-20T06:30:02.402Z,30.90
2023-04-20T06:30:33.984Z,31.07
2023-04-20T06:31:05.434Z,31.01
2023-04-20T06:31:36.939Z,31.05
2023-04-20T06:32:08.417Z,31.02
2023-04-20T06:32:39.970Z,30.99
2023-04-20T06:33:12.431Z,31.15
2023-04-20T06:33:44.010Z,31.00
2023-04-20T06:34:15.438Z,31.23
2023-04-20T06:34:46.852Z,31.14
2023-04-20T06:35:18.248Z,31.09
2023-04-20T06:35:49.696Z,31.07
2023-04-20T06:36:21.216Z,31.19
2023-04-20T06:36:52.675Z,31.19
2023-04-20T06:37:24.155Z,31.05
2023-04-20T06:37:55.541Z,31.21
2023-04-20T06:38:26.954Z,31.21
2023-04-20T06:38:58.458Z,31.08
2023-04-20T06:39:29.867Z,31.14
2023-04-20T06:40:01.271Z,30.93
2023-04-20T06:40:32.946Z,31.13
2023-04-20T06:41:04.536Z,31.14
2023-04-20T06:41:35.936Z,31.04
2023-04-20T06:42:07.369Z,31.19
2023-04-20T06:42:38.753Z,31.14
2023-04-20T06:43:10.224Z,31.06
2023-04-20T06:43:41.607Z,31.12
2023-04-20T06:44:13.032Z,31.25
2023-04-20T06:44:44.466Z,31.31
2023-04-20T06:45:15.869Z,31.15
2023-04-20T06:45:47.326Z,31.17
2023-04-20T06:46:18.835Z,31.35
2023-04-20T06:46:50.357Z,31.24
2023-04-20T06:47:21.844Z,31.22
2023-04-20T06:47:53.277Z,31.27
2023-04-20T06:48:32.044Z,31.14
2023-04-20T06:49:04.453Z,31.13
2023-04-20T06:49:35.855Z,31.20
2023-04-20T06:50:07.308Z,31.31